sensor_id;sensor_type;location;lat;lon;timestamp;temperature;humidity
15115;DHT22;7658;51.456;7.622;2022-09-25T00:00:41;12.90;99.90
15115;DHT22;7658;51.456;7.622;2022-09-25T00:03:08;12.90;99.90
15115;DHT22;7658;51.456;7.622;2022-09-25T00:05:35;12.90;99.90
15115;DHT22;7658;51.456;7.622;2022-09-25T00:08:02;12.90;99.90
15115;DHT22;7658;51.456;7.622;2022-09-25T00:10:28;12.90;99.90
15115;DHT22;7658;51.456;7.622;2022-09-25T00:12:54;12.90;99.90
15115;DHT22;7658;51.456;7.622;2022-09-25T00:15:20;12.90;99.90
15115;DHT22;7658;51.456;7.622;2022-09-25T00:17:46;12.90;99.90
15115;DHT22;7658;51.456;7.622;2022-09-25T00:20:15;12.90;99.90
15115;DHT22;7658;51.456;7.622;2022-09-25T00:22:41;12.90;99.90
15115;DHT22;7658;51.456;7.622;2022-09-25T00:25:10;12.90;99.90
15115;DHT22;7658;51.456;7.622;2022-09-25T00:27:37;12.90;99.90
15115;DHT22;7658;51.456;7.622;2022-09-25T00:30:03;12.90;99.90
15115;DHT22;7658;51.456;7.622;2022-09-25T00:32:29;12.90;99.90
15115;DHT22;7658;51.456;7.622;2022-09-25T00:34:55;12.90;99.90
15115;DHT22;7658;51.456;7.622;2022-09-25T00:37:21;12.90;99.90
15115;DHT22;7658;51.456;7.622;2022-09-25T00:39:47;12.90;99.90
15115;DHT22;7658;51.456;7.622;2022-09-25T00:42:13;12.90;99.90
15115;DHT22;7658;51.456;7.622;2022-09-25T00:50:02;12.90;99.90
15115;DHT22;7658;51.456;7.622;2022-09-25T00:52:29;12.90;99.90
15115;DHT22;7658;51.456;7.622;2022-09-25T00:55:02;12.90;99.90
15115;DHT22;7658;51.456;7.622;2022-09-25T00:57:32;12.80;99.90
15115;DHT22;7658;51.456;7.622;2022-09-25T01:00:08;12.80;99.90
15115;DHT22;7658;51.456;7.622;2022-09-25T01:02:38;12.80;99.90
15115;DHT22;7658;51.456;7.622;2022-09-25T01:05:10;12.80;99.90
15115;DHT22;7658;51.456;7.622;2022-09-25T01:07:38;12.80;99.90
15115;DHT22;7658;51.456;7.622;2022-09-25T01:10:06;12.80;99.90
15115;DHT22;7658;51.456;7.622;2022-09-25T01:12:34;12.70;99.90
15115;DHT22;7658;51.456;7.622;2022-09-25T01:15:05;12.70;99.90
15115;DHT22;7658;51.456;7.622;2022-09-25T01:20:24;12.70;99.90
15115;DHT22;7658;51.456;7.622;2022-09-25T01:31:15;12.70;99.90
15115;DHT22;7658;51.456;7.622;2022-09-25T01:33:49;12.70;99.90
15115;DHT22;7658;51.456;7.622;2022-09-25T01:36:32;12.60;99.90
15115;DHT22;7658;51.456;7.622;2022-09-25T01:39:10;12.60;99.90
15115;DHT22;7658;51.456;7.622;2022-09-25T01:42:20;12.60;99.90
15115;DHT22;7658;51.456;7.622;2022-09-25T01:44:50;12.60;99.90
15115;DHT22;7658;51.456;7.622;2022-09-25T01:47:24;12.60;99.90
15115;DHT22;7658;51.456;7.622;2022-09-25T01:49:56;12.60;99.90
15115;DHT22;7658;51.456;7.622;2022-09-25T01:52:30;12.60;99.90
15115;DHT22;7658;51.456;7.622;2022-09-25T01:55:09;12.60;99.90
15115;DHT22;7658;51.456;7.622;2022-09-25T02:00:26;12.60;99.90
15115;DHT22;7658;51.456;7.622;2022-09-25T02:03:00;12.60;99.90
15115;DHT22;7658;51.456;7.622;2022-09-25T02:05:47;12.60;99.90
15115;DHT22;7658;51.456;7.622;2022-09-25T02:08:20;12.60;99.90
15115;DHT22;7658;51.456;7.622;2022-09-25T02:10:50;12.60;99.90
15115;DHT22;7658;51.456;7.622;2022-09-25T02:13:22;12.60;99.90
15115;DHT22;7658;51.456;7.622;2022-09-25T02:18:20;12.50;99.90
15115;DHT22;7658;51.456;7.622;2022-09-25T02:21:26;12.50;99.90
15115;DHT22;7658;51.456;7.622;2022-09-25T02:24:18;12.50;99.90
15115;DHT22;7658;51.456;7.622;2022-09-25T02:26:46;12.50;99.90
15115;DHT22;7658;51.456;7.622;2022-09-25T02:29:13;12.50;99.90
15115;DHT22;7658;51.456;7.622;2022-09-25T02:32:04;12.50;99.90
15115;DHT22;7658;51.456;7.622;2022-09-25T02:34:31;12.50;99.90
15115;DHT22;7658;51.456;7.622;2022-09-25T02:36:57;12.50;99.90
15115;DHT22;7658;51.456;7.622;2022-09-25T02:39:27;12.50;99.90
15115;DHT22;7658;51.456;7.622;2022-09-25T02:47:43;12.50;99.90
15115;DHT22;7658;51.456;7.622;2022-09-25T02:56:13;12.40;99.90
15115;DHT22;7658;51.456;7.622;2022-09-25T02:58:51;12.40;99.90
15115;DHT22;7658;51.456;7.622;2022-09-25T03:01:19;12.40;99.90
15115;DHT22;7658;51.456;7.622;2022-09-25T03:03:48;12.30;99.90
15115;DHT22;7658;51.456;7.622;2022-09-25T03:06:15;12.30;99.90
15115;DHT22;7658;51.456;7.622;2022-09-25T03:08:46;12.30;99.90
15115;DHT22;7658;51.456;7.622;2022-09-25T03:11:18;12.30;99.90
15115;DHT22;7658;51.456;7.622;2022-09-25T03:13:45;12.30;99.90
15115;DHT22;7658;51.456;7.622;2022-09-25T03:18:43;12.30;99.90
15115;DHT22;7658;51.456;7.622;2022-09-25T03:21:09;12.30;99.90
15115;DHT22;7658;51.456;7.622;2022-09-25T03:23:35;12.30;99.90
15115;DHT22;7658;51.456;7.622;2022-09-25T03:26:00;12.30;99.90
15115;DHT22;7658;51.456;7.622;2022-09-25T03:28:26;12.30;99.90
15115;DHT22;7658;51.456;7.622;2022-09-25T03:31:10;12.30;99.90
15115;DHT22;7658;51.456;7.622;2022-09-25T03:33:37;12.30;99.90
15115;DHT22;7658;51.456;7.622;2022-09-25T03:36:07;12.30;99.90
15115;DHT22;7658;51.456;7.622;2022-09-25T03:38:35;12.20;99.90
15115;DHT22;7658;51.456;7.622;2022-09-25T03:41:02;12.20;99.90
15115;DHT22;7658;51.456;7.622;2022-09-25T03:43:28;12.20;99.90
15115;DHT22;7658;51.456;7.622;2022-09-25T03:45:58;12.20;99.90
15115;DHT22;7658;51.456;7.622;2022-09-25T03:48:23;12.20;99.90
15115;DHT22;7658;51.456;7.622;2022-09-25T03:50:49;12.20;99.90
15115;DHT22;7658;51.456;7.622;2022-09-25T03:53:16;12.20;99.90
15115;DHT22;7658;51.456;7.622;2022-09-25T03:55:44;12.20;99.90
15115;DHT22;7658;51.456;7.622;2022-09-25T03:58:16;12.20;99.90
15115;DHT22;7658;51.456;7.622;2022-09-25T04:00:43;12.20;99.90
15115;DHT22;7658;51.456;7.622;2022-09-25T04:03:10;12.10;99.90
15115;DHT22;7658;51.456;7.622;2022-09-25T04:05:36;12.10;99.90
15115;DHT22;7658;51.456;7.622;2022-09-25T04:08:03;12.20;99.90
15115;DHT22;7658;51.456;7.622;2022-09-25T04:10:29;12.20;99.90
15115;DHT22;7658;51.456;7.622;2022-09-25T04:12:55;12.10;99.90
15115;DHT22;7658;51.456;7.622;2022-09-25T04:15:22;12.10;99.90
15115;DHT22;7658;51.456;7.622;2022-09-25T04:17:48;12.10;99.90
15115;DHT22;7658;51.456;7.622;2022-09-25T04:20:14;12.10;99.90
15115;DHT22;7658;51.456;7.622;2022-09-25T04:22:40;12.10;99.90
15115;DHT22;7658;51.456;7.622;2022-09-25T04:25:06;12.10;99.90
15115;DHT22;7658;51.456;7.622;2022-09-25T04:27:32;12.10;99.90
15115;DHT22;7658;51.456;7.622;2022-09-25T04:29:58;12.00;99.90
15115;DHT22;7658;51.456;7.622;2022-09-25T04:32:25;12.00;99.90
15115;DHT22;7658;51.456;7.622;2022-09-25T04:35:09;12.00;99.90
15115;DHT22;7658;51.456;7.622;2022-09-25T04:37:35;12.00;99.90
15115;DHT22;7658;51.456;7.622;2022-09-25T04:40:01;11.90;99.90
15115;DHT22;7658;51.456;7.622;2022-09-25T04:42:27;11.90;99.90
15115;DHT22;7658;51.456;7.622;2022-09-25T04:44:54;11.90;99.90
15115;DHT22;7658;51.456;7.622;2022-09-25T04:47:21;11.90;99.90
15115;DHT22;7658;51.456;7.622;2022-09-25T04:49:47;11.80;99.90
15115;DHT22;7658;51.456;7.622;2022-09-25T04:52:14;11.80;99.90
15115;DHT22;7658;51.456;7.622;2022-09-25T04:54:41;11.80;99.90
15115;DHT22;7658;51.456;7.622;2022-09-25T04:57:08;11.80;99.90
15115;DHT22;7658;51.456;7.622;2022-09-25T04:59:35;11.80;99.90
15115;DHT22;7658;51.456;7.622;2022-09-25T05:02:01;11.80;99.90
15115;DHT22;7658;51.456;7.622;2022-09-25T05:04:27;11.70;99.90
15115;DHT22;7658;51.456;7.622;2022-09-25T05:06:53;11.70;99.90
15115;DHT22;7658;51.456;7.622;2022-09-25T05:09:19;11.70;99.90
15115;DHT22;7658;51.456;7.622;2022-09-25T05:11:47;11.70;99.90
15115;DHT22;7658;51.456;7.622;2022-09-25T05:14:13;11.70;99.90
15115;DHT22;7658;51.456;7.622;2022-09-25T05:16:39;11.60;99.90
15115;DHT22;7658;51.456;7.622;2022-09-25T05:19:05;11.50;99.90
15115;DHT22;7658;51.456;7.622;2022-09-25T05:21:30;11.50;99.90
15115;DHT22;7658;51.456;7.622;2022-09-25T05:23:57;11.40;99.90
15115;DHT22;7658;51.456;7.622;2022-09-25T05:26:23;11.40;99.90
15115;DHT22;7658;51.456;7.622;2022-09-25T05:28:49;11.40;99.90
15115;DHT22;7658;51.456;7.622;2022-09-25T05:31:16;11.40;99.90
15115;DHT22;7658;51.456;7.622;2022-09-25T05:33:41;11.30;99.90
15115;DHT22;7658;51.456;7.622;2022-09-25T05:36:08;11.30;99.90
15115;DHT22;7658;51.456;7.622;2022-09-25T05:38:36;11.30;99.90
15115;DHT22;7658;51.456;7.622;2022-09-25T05:41:05;11.30;99.90
15115;DHT22;7658;51.456;7.622;2022-09-25T05:43:32;11.30;99.90
15115;DHT22;7658;51.456;7.622;2022-09-25T05:45:58;11.30;99.90
15115;DHT22;7658;51.456;7.622;2022-09-25T05:48:25;11.30;99.90
15115;DHT22;7658;51.456;7.622;2022-09-25T05:50:55;11.30;99.90
15115;DHT22;7658;51.456;7.622;2022-09-25T05:53:22;11.30;99.90
15115;DHT22;7658;51.456;7.622;2022-09-25T05:55:56;11.30;99.90
15115;DHT22;7658;51.456;7.622;2022-09-25T05:58:23;11.30;99.90
15115;DHT22;7658;51.456;7.622;2022-09-25T06:00:50;11.30;99.90
15115;DHT22;7658;51.456;7.622;2022-09-25T06:03:17;11.30;99.90
15115;DHT22;7658;51.456;7.622;2022-09-25T06:05:43;11.30;99.90
15115;DHT22;7658;51.456;7.622;2022-09-25T06:08:11;11.30;99.90
15115;DHT22;7658;51.456;7.622;2022-09-25T06:10:38;11.30;99.90
15115;DHT22;7658;51.456;7.622;2022-09-25T06:13:04;11.30;99.90
15115;DHT22;7658;51.456;7.622;2022-09-25T06:15:35;11.30;99.90
15115;DHT22;7658;51.456;7.622;2022-09-25T06:18:03;11.30;99.90
15115;DHT22;7658;51.456;7.622;2022-09-25T06:20:29;11.20;99.90
15115;DHT22;7658;51.456;7.622;2022-09-25T06:22:56;11.20;99.90
15115;DHT22;7658;51.456;7.622;2022-09-25T06:25:24;11.20;99.90
15115;DHT22;7658;51.456;7.622;2022-09-25T06:27:52;11.10;99.90
15115;DHT22;7658;51.456;7.622;2022-09-25T06:30:19;11.10;99.90
15115;DHT22;7658;51.456;7.622;2022-09-25T06:32:46;11.10;99.90
15115;DHT22;7658;51.456;7.622;2022-09-25T06:35:13;11.00;99.90
15115;DHT22;7658;51.456;7.622;2022-09-25T06:37:39;11.00;99.90
15115;DHT22;7658;51.456;7.622;2022-09-25T06:40:05;11.00;99.90
15115;DHT22;7658;51.456;7.622;2022-09-25T06:42:31;11.00;99.90
15115;DHT22;7658;51.456;7.622;2022-09-25T06:45:00;11.00;99.90
15115;DHT22;7658;51.456;7.622;2022-09-25T06:47:25;11.10;99.90
15115;DHT22;7658;51.456;7.622;2022-09-25T06:49:51;11.10;99.90
15115;DHT22;7658;51.456;7.622;2022-09-25T06:52:17;11.10;99.90
15115;DHT22;7658;51.456;7.622;2022-09-25T06:54:43;11.10;99.90
15115;DHT22;7658;51.456;7.622;2022-09-25T06:57:09;11.20;99.90
15115;DHT22;7658;51.456;7.622;2022-09-25T06:59:35;11.10;99.90
15115;DHT22;7658;51.456;7.622;2022-09-25T07:02:00;11.10;99.90
15115;DHT22;7658;51.456;7.622;2022-09-25T07:04:46;11.20;99.90
15115;DHT22;7658;51.456;7.622;2022-09-25T07:07:16;11.20;99.90
15115;DHT22;7658;51.456;7.622;2022-09-25T07:09:43;11.20;99.90
15115;DHT22;7658;51.456;7.622;2022-09-25T07:12:09;11.20;99.90
15115;DHT22;7658;51.456;7.622;2022-09-25T07:14:35;11.20;99.90
15115;DHT22;7658;51.456;7.622;2022-09-25T07:17:03;11.30;99.90
15115;DHT22;7658;51.456;7.622;2022-09-25T07:19:28;11.30;99.90
15115;DHT22;7658;51.456;7.622;2022-09-25T07:21:54;11.40;99.90
15115;DHT22;7658;51.456;7.622;2022-09-25T07:24:20;11.40;99.90
15115;DHT22;7658;51.456;7.622;2022-09-25T07:26:46;11.40;99.90
15115;DHT22;7658;51.456;7.622;2022-09-25T07:29:12;11.50;99.90
15115;DHT22;7658;51.456;7.622;2022-09-25T07:31:38;11.60;99.90
15115;DHT22;7658;51.456;7.622;2022-09-25T07:34:04;11.70;99.90
15115;DHT22;7658;51.456;7.622;2022-09-25T07:36:38;11.80;99.90
15115;DHT22;7658;51.456;7.622;2022-09-25T07:39:05;11.90;99.90
15115;DHT22;7658;51.456;7.622;2022-09-25T07:41:31;11.90;99.90
15115;DHT22;7658;51.456;7.622;2022-09-25T07:43:59;11.90;99.90
15115;DHT22;7658;51.456;7.622;2022-09-25T07:46:25;12.00;99.90
15115;DHT22;7658;51.456;7.622;2022-09-25T07:48:51;12.10;99.90
15115;DHT22;7658;51.456;7.622;2022-09-25T07:51:18;12.20;99.90
15115;DHT22;7658;51.456;7.622;2022-09-25T07:53:46;12.30;99.90
15115;DHT22;7658;51.456;7.622;2022-09-25T07:56:12;12.50;99.90
15115;DHT22;7658;51.456;7.622;2022-09-25T07:58:38;12.60;99.90
15115;DHT22;7658;51.456;7.622;2022-09-25T08:01:07;12.70;99.90
15115;DHT22;7658;51.456;7.622;2022-09-25T08:03:34;12.80;99.90
15115;DHT22;7658;51.456;7.622;2022-09-25T08:06:10;13.00;99.90
15115;DHT22;7658;51.456;7.622;2022-09-25T08:08:39;13.10;99.90
15115;DHT22;7658;51.456;7.622;2022-09-25T08:11:07;13.40;99.90
15115;DHT22;7658;51.456;7.622;2022-09-25T08:13:34;13.60;99.90
15115;DHT22;7658;51.456;7.622;2022-09-25T08:16:05;13.60;99.90
15115;DHT22;7658;51.456;7.622;2022-09-25T08:18:32;13.60;99.90
15115;DHT22;7658;51.456;7.622;2022-09-25T08:21:01;13.50;99.90
15115;DHT22;7658;51.456;7.622;2022-09-25T08:23:27;13.40;99.90
15115;DHT22;7658;51.456;7.622;2022-09-25T08:25:53;13.30;99.90
15115;DHT22;7658;51.456;7.622;2022-09-25T08:28:19;13.30;99.90
15115;DHT22;7658;51.456;7.622;2022-09-25T08:30:45;13.40;99.90
15115;DHT22;7658;51.456;7.622;2022-09-25T08:33:12;13.50;99.90
15115;DHT22;7658;51.456;7.622;2022-09-25T08:35:38;13.70;99.90
15115;DHT22;7658;51.456;7.622;2022-09-25T08:38:06;13.90;99.90
15115;DHT22;7658;51.456;7.622;2022-09-25T08:40:33;13.90;99.90
15115;DHT22;7658;51.456;7.622;2022-09-25T08:43:03;13.90;99.90
15115;DHT22;7658;51.456;7.622;2022-09-25T08:45:31;13.90;99.90
15115;DHT22;7658;51.456;7.622;2022-09-25T08:48:25;13.90;99.90
15115;DHT22;7658;51.456;7.622;2022-09-25T08:51:12;14.00;99.90
15115;DHT22;7658;51.456;7.622;2022-09-25T08:53:38;14.20;99.90
15115;DHT22;7658;51.456;7.622;2022-09-25T08:56:05;14.20;99.90
15115;DHT22;7658;51.456;7.622;2022-09-25T09:01:24;14.30;99.90
15115;DHT22;7658;51.456;7.622;2022-09-25T09:04:13;14.40;99.90
15115;DHT22;7658;51.456;7.622;2022-09-25T09:06:45;14.20;99.90
15115;DHT22;7658;51.456;7.622;2022-09-25T09:09:14;14.10;99.90
15115;DHT22;7658;51.456;7.622;2022-09-25T09:12:12;14.00;99.90
15115;DHT22;7658;51.456;7.622;2022-09-25T09:14:46;13.80;99.90
15115;DHT22;7658;51.456;7.622;2022-09-25T09:17:21;13.70;99.90
15115;DHT22;7658;51.456;7.622;2022-09-25T09:20:14;13.60;99.90
15115;DHT22;7658;51.456;7.622;2022-09-25T09:22:48;13.60;99.90
15115;DHT22;7658;51.456;7.622;2022-09-25T09:28:19;13.70;99.90
15115;DHT22;7658;51.456;7.622;2022-09-25T09:31:04;13.80;99.90
15115;DHT22;7658;51.456;7.622;2022-09-25T09:39:29;14.30;99.90
15115;DHT22;7658;51.456;7.622;2022-09-25T09:45:02;14.80;99.90
15115;DHT22;7658;51.456;7.622;2022-09-25T09:50:44;15.50;99.90
15115;DHT22;7658;51.456;7.622;2022-09-25T09:53:25;15.60;99.90
15115;DHT22;7658;51.456;7.622;2022-09-25T09:56:00;15.70;99.90
15115;DHT22;7658;51.456;7.622;2022-09-25T09:58:50;15.80;99.90
15115;DHT22;7658;51.456;7.622;2022-09-25T10:01:22;15.90;99.90
15115;DHT22;7658;51.456;7.622;2022-09-25T10:03:57;15.90;99.90
15115;DHT22;7658;51.456;7.622;2022-09-25T10:06:28;15.90;99.90
15115;DHT22;7658;51.456;7.622;2022-09-25T10:08:55;15.90;99.90
15115;DHT22;7658;51.456;7.622;2022-09-25T10:11:21;15.90;99.90
15115;DHT22;7658;51.456;7.622;2022-09-25T10:13:47;15.60;99.90
15115;DHT22;7658;51.456;7.622;2022-09-25T10:16:23;15.30;99.90
15115;DHT22;7658;51.456;7.622;2022-09-25T10:21:20;15.10;99.90
15115;DHT22;7658;51.456;7.622;2022-09-25T10:23:49;15.10;99.90
15115;DHT22;7658;51.456;7.622;2022-09-25T10:26:34;15.20;99.90
15115;DHT22;7658;51.456;7.622;2022-09-25T10:29:03;15.30;99.90
15115;DHT22;7658;51.456;7.622;2022-09-25T10:31:35;15.50;99.90
15115;DHT22;7658;51.456;7.622;2022-09-25T10:36:48;15.90;99.90
15115;DHT22;7658;51.456;7.622;2022-09-25T10:39:36;16.10;99.90
15115;DHT22;7658;51.456;7.622;2022-09-25T10:42:28;16.30;99.90
15115;DHT22;7658;51.456;7.622;2022-09-25T10:44:55;16.30;99.90
15115;DHT22;7658;51.456;7.622;2022-09-25T10:50:21;16.10;99.90
15115;DHT22;7658;51.456;7.622;2022-09-25T10:52:54;16.20;99.90
15115;DHT22;7658;51.456;7.622;2022-09-25T10:55:24;16.50;99.90
15115;DHT22;7658;51.456;7.622;2022-09-25T11:00:26;17.00;99.90
15115;DHT22;7658;51.456;7.622;2022-09-25T11:03:01;17.10;99.90
15115;DHT22;7658;51.456;7.622;2022-09-25T11:05:31;16.80;99.90
15115;DHT22;7658;51.456;7.622;2022-09-25T11:08:00;16.40;99.90
15115;DHT22;7658;51.456;7.622;2022-09-25T11:10:35;16.10;99.90
15115;DHT22;7658;51.456;7.622;2022-09-25T11:13:07;15.90;99.90
15115;DHT22;7658;51.456;7.622;2022-09-25T11:15:35;16.00;99.90
15115;DHT22;7658;51.456;7.622;2022-09-25T11:18:04;16.20;99.90
15115;DHT22;7658;51.456;7.622;2022-09-25T11:20:31;16.50;99.90
15115;DHT22;7658;51.456;7.622;2022-09-25T11:28:32;17.10;99.90
15115;DHT22;7658;51.456;7.622;2022-09-25T11:31:31;17.30;99.90
15115;DHT22;7658;51.456;7.622;2022-09-25T11:43:12;18.40;99.90
15115;DHT22;7658;51.456;7.622;2022-09-25T11:45:43;18.40;99.90
15115;DHT22;7658;51.456;7.622;2022-09-25T11:56:56;18.00;99.90
15115;DHT22;7658;51.456;7.622;2022-09-25T11:59:57;18.40;99.90
15115;DHT22;7658;51.456;7.622;2022-09-25T12:12:43;17.40;99.90
15115;DHT22;7658;51.456;7.622;2022-09-25T12:21:10;16.50;99.90
15115;DHT22;7658;51.456;7.622;2022-09-25T12:23:55;16.30;99.90
15115;DHT22;7658;51.456;7.622;2022-09-25T12:30:01;17.30;99.90
15115;DHT22;7658;51.456;7.622;2022-09-25T12:35:47;18.20;99.90
15115;DHT22;7658;51.456;7.622;2022-09-25T12:38:31;18.40;99.90
15115;DHT22;7658;51.456;7.622;2022-09-25T12:41:08;18.70;99.90
15115;DHT22;7658;51.456;7.622;2022-09-25T12:46:42;18.50;99.90
15115;DHT22;7658;51.456;7.622;2022-09-25T12:51:44;19.40;99.90
15115;DHT22;7658;51.456;7.622;2022-09-25T12:54:34;19.80;99.90
15115;DHT22;7658;51.456;7.622;2022-09-25T12:57:18;19.70;99.90
15115;DHT22;7658;51.456;7.622;2022-09-25T13:02:18;18.90;99.90
15115;DHT22;7658;51.456;7.622;2022-09-25T13:07:54;18.60;99.90
15115;DHT22;7658;51.456;7.622;2022-09-25T13:13:16;19.20;99.90
15115;DHT22;7658;51.456;7.622;2022-09-25T13:15:54;19.30;99.90
15115;DHT22;7658;51.456;7.622;2022-09-25T13:18:23;19.50;99.90
15115;DHT22;7658;51.456;7.622;2022-09-25T13:20:55;19.80;99.90
15115;DHT22;7658;51.456;7.622;2022-09-25T13:23:35;19.80;99.90
15115;DHT22;7658;51.456;7.622;2022-09-25T13:26:16;19.90;99.90
15115;DHT22;7658;51.456;7.622;2022-09-25T13:29:01;19.90;99.90
15115;DHT22;7658;51.456;7.622;2022-09-25T13:31:31;19.60;99.90
15115;DHT22;7658;51.456;7.622;2022-09-25T13:36:39;18.90;99.90
15115;DHT22;7658;51.456;7.622;2022-09-25T13:39:29;18.70;99.90
15115;DHT22;7658;51.456;7.622;2022-09-25T13:50:23;18.40;99.90
15115;DHT22;7658;51.456;7.622;2022-09-25T13:58:25;17.60;99.90
15115;DHT22;7658;51.456;7.622;2022-09-25T14:00:54;17.20;99.90
15115;DHT22;7658;51.456;7.622;2022-09-25T14:03:41;16.90;99.90
15115;DHT22;7658;51.456;7.622;2022-09-25T14:06:30;16.70;99.90
15115;DHT22;7658;51.456;7.622;2022-09-25T14:09:01;16.50;99.90
15115;DHT22;7658;51.456;7.622;2022-09-25T14:11:32;16.40;99.90
15115;DHT22;7658;51.456;7.622;2022-09-25T14:14:01;16.30;99.90
15115;DHT22;7658;51.456;7.622;2022-09-25T14:16:34;16.30;99.90
15115;DHT22;7658;51.456;7.622;2022-09-25T14:19:02;16.40;99.90
15115;DHT22;7658;51.456;7.622;2022-09-25T14:21:30;16.70;99.90
15115;DHT22;7658;51.456;7.622;2022-09-25T14:24:25;17.00;99.90
15115;DHT22;7658;51.456;7.622;2022-09-25T14:26:54;17.30;99.90
15115;DHT22;7658;51.456;7.622;2022-09-25T14:29:40;17.50;99.90
15115;DHT22;7658;51.456;7.622;2022-09-25T14:35:12;17.80;99.90
15115;DHT22;7658;51.456;7.622;2022-09-25T14:40:23;18.00;99.90
15115;DHT22;7658;51.456;7.622;2022-09-25T14:45:53;18.10;99.90
15115;DHT22;7658;51.456;7.622;2022-09-25T14:48:40;18.10;99.90
15115;DHT22;7658;51.456;7.622;2022-09-25T14:51:14;18.10;99.90
15115;DHT22;7658;51.456;7.622;2022-09-25T14:53:50;18.00;99.90
15115;DHT22;7658;51.456;7.622;2022-09-25T14:56:19;18.00;99.90
15115;DHT22;7658;51.456;7.622;2022-09-25T14:58:48;17.80;99.90
15115;DHT22;7658;51.456;7.622;2022-09-25T15:01:23;17.70;99.90
15115;DHT22;7658;51.456;7.622;2022-09-25T15:03:52;17.50;99.90
15115;DHT22;7658;51.456;7.622;2022-09-25T15:06:30;17.30;99.90
15115;DHT22;7658;51.456;7.622;2022-09-25T15:08:56;17.00;99.90
15115;DHT22;7658;51.456;7.622;2022-09-25T15:11:25;16.90;99.90
15115;DHT22;7658;51.456;7.622;2022-09-25T15:13:52;16.80;99.90
15115;DHT22;7658;51.456;7.622;2022-09-25T15:16:24;16.70;99.90
15115;DHT22;7658;51.456;7.622;2022-09-25T15:19:19;16.70;99.90
15115;DHT22;7658;51.456;7.622;2022-09-25T15:21:47;16.60;99.90
15115;DHT22;7658;51.456;7.622;2022-09-25T15:24:19;16.60;99.90
15115;DHT22;7658;51.456;7.622;2022-09-25T15:26:51;16.50;99.90
15115;DHT22;7658;51.456;7.622;2022-09-25T15:29:22;16.50;99.90
15115;DHT22;7658;51.456;7.622;2022-09-25T15:31:49;16.40;99.90
15115;DHT22;7658;51.456;7.622;2022-09-25T15:34:21;16.40;99.90
15115;DHT22;7658;51.456;7.622;2022-09-25T15:36:48;16.30;99.90
15115;DHT22;7658;51.456;7.622;2022-09-25T15:39:23;16.30;99.90
15115;DHT22;7658;51.456;7.622;2022-09-25T15:41:50;16.30;99.90
15115;DHT22;7658;51.456;7.622;2022-09-25T15:44:22;16.20;99.90
15115;DHT22;7658;51.456;7.622;2022-09-25T15:46:53;16.10;99.90
15115;DHT22;7658;51.456;7.622;2022-09-25T15:52:03;16.00;99.90
15115;DHT22;7658;51.456;7.622;2022-09-25T15:56:59;15.90;99.90
15115;DHT22;7658;51.456;7.622;2022-09-25T15:59:42;15.90;99.90
15115;DHT22;7658;51.456;7.622;2022-09-25T16:02:28;15.80;99.90
15115;DHT22;7658;51.456;7.622;2022-09-25T16:05:15;15.80;99.90
15115;DHT22;7658;51.456;7.622;2022-09-25T16:07:44;15.70;99.90
15115;DHT22;7658;51.456;7.622;2022-09-25T16:18:01;15.70;99.90
15115;DHT22;7658;51.456;7.622;2022-09-25T16:20:32;15.60;99.90
15115;DHT22;7658;51.456;7.622;2022-09-25T16:23:01;15.70;99.90
15115;DHT22;7658;51.456;7.622;2022-09-25T16:25:33;15.60;99.90
15115;DHT22;7658;51.456;7.622;2022-09-25T16:28:21;15.50;99.90
15115;DHT22;7658;51.456;7.622;2022-09-25T16:30:57;15.50;99.90
15115;DHT22;7658;51.456;7.622;2022-09-25T16:33:25;15.40;99.90
15115;DHT22;7658;51.456;7.622;2022-09-25T16:35:51;15.40;99.90
15115;DHT22;7658;51.456;7.622;2022-09-25T16:38:32;15.30;99.90
15115;DHT22;7658;51.456;7.622;2022-09-25T16:41:18;15.30;99.90
15115;DHT22;7658;51.456;7.622;2022-09-25T16:43:44;15.20;99.90
15115;DHT22;7658;51.456;7.622;2022-09-25T16:46:19;15.20;99.90
15115;DHT22;7658;51.456;7.622;2022-09-25T16:49:00;15.10;99.90
15115;DHT22;7658;51.456;7.622;2022-09-25T16:51:27;15.10;99.90
15115;DHT22;7658;51.456;7.622;2022-09-25T16:53:56;15.10;99.90
15115;DHT22;7658;51.456;7.622;2022-09-25T16:56:24;15.10;99.90
15115;DHT22;7658;51.456;7.622;2022-09-25T16:58:53;15.00;99.90
15115;DHT22;7658;51.456;7.622;2022-09-25T17:01:20;14.90;99.90
15115;DHT22;7658;51.456;7.622;2022-09-25T17:03:47;15.00;99.90
15115;DHT22;7658;51.456;7.622;2022-09-25T17:06:22;14.90;99.90
15115;DHT22;7658;51.456;7.622;2022-09-25T17:08:49;14.80;99.90
15115;DHT22;7658;51.456;7.622;2022-09-25T17:11:18;14.80;99.90
15115;DHT22;7658;51.456;7.622;2022-09-25T17:13:45;14.80;99.90
15115;DHT22;7658;51.456;7.622;2022-09-25T17:16:11;14.70;99.90
15115;DHT22;7658;51.456;7.622;2022-09-25T17:18:38;14.60;99.90
15115;DHT22;7658;51.456;7.622;2022-09-25T17:21:09;14.50;99.90
15115;DHT22;7658;51.456;7.622;2022-09-25T17:23:36;14.40;99.90
15115;DHT22;7658;51.456;7.622;2022-09-25T17:26:13;14.40;99.90
15115;DHT22;7658;51.456;7.622;2022-09-25T17:28:40;14.30;99.90
15115;DHT22;7658;51.456;7.622;2022-09-25T17:31:15;14.20;99.90
15115;DHT22;7658;51.456;7.622;2022-09-25T17:33:42;14.20;99.90
15115;DHT22;7658;51.456;7.622;2022-09-25T17:36:10;14.20;99.90
15115;DHT22;7658;51.456;7.622;2022-09-25T17:38:36;14.10;99.90
15115;DHT22;7658;51.456;7.622;2022-09-25T17:41:19;14.10;99.90
15115;DHT22;7658;51.456;7.622;2022-09-25T17:43:46;14.00;99.90
15115;DHT22;7658;51.456;7.622;2022-09-25T17:46:12;14.00;99.90
15115;DHT22;7658;51.456;7.622;2022-09-25T17:48:43;14.00;99.90
15115;DHT22;7658;51.456;7.622;2022-09-25T17:51:11;13.90;99.90
15115;DHT22;7658;51.456;7.622;2022-09-25T17:53:37;13.80;99.90
15115;DHT22;7658;51.456;7.622;2022-09-25T17:56:03;13.70;99.90
15115;DHT22;7658;51.456;7.622;2022-09-25T17:58:30;13.60;99.90
15115;DHT22;7658;51.456;7.622;2022-09-25T18:00:57;13.50;99.90
15115;DHT22;7658;51.456;7.622;2022-09-25T18:03:24;13.30;99.90
15115;DHT22;7658;51.456;7.622;2022-09-25T18:05:50;13.20;99.90
15115;DHT22;7658;51.456;7.622;2022-09-25T18:08:16;13.10;99.90
15115;DHT22;7658;51.456;7.622;2022-09-25T18:10:43;13.00;99.90
15115;DHT22;7658;51.456;7.622;2022-09-25T18:13:14;13.00;99.90
15115;DHT22;7658;51.456;7.622;2022-09-25T18:16:15;13.00;99.90
15115;DHT22;7658;51.456;7.622;2022-09-25T18:18:43;12.90;99.90
15115;DHT22;7658;51.456;7.622;2022-09-25T18:21:27;12.70;99.90
15115;DHT22;7658;51.456;7.622;2022-09-25T18:24:11;12.60;99.90
15115;DHT22;7658;51.456;7.622;2022-09-25T18:26:37;12.50;99.90
15115;DHT22;7658;51.456;7.622;2022-09-25T18:29:03;12.40;99.90
15115;DHT22;7658;51.456;7.622;2022-09-25T18:31:29;12.30;99.90
15115;DHT22;7658;51.456;7.622;2022-09-25T18:33:56;12.30;99.90
15115;DHT22;7658;51.456;7.622;2022-09-25T18:36:21;12.20;99.90
15115;DHT22;7658;51.456;7.622;2022-09-25T18:38:47;12.30;99.90
15115;DHT22;7658;51.456;7.622;2022-09-25T18:41:13;12.20;99.90
15115;DHT22;7658;51.456;7.622;2022-09-25T18:43:42;12.30;99.90
15115;DHT22;7658;51.456;7.622;2022-09-25T18:46:07;12.20;99.90
15115;DHT22;7658;51.456;7.622;2022-09-25T18:48:34;12.30;99.90
15115;DHT22;7658;51.456;7.622;2022-09-25T18:51:02;12.30;99.90